Time;durP1;ratioP1;P1;durP2;ratioP2;P2;SDS_P1;SDS_P2;PMS_P1;PMS_P2;Temp;Humidity;BMP_temperature;BMP_pressure;BME280_temperature;BME280_humidity;BME280_pressure;Samples;Min_cycle;Max_cycle;Signal;HPM_P1;HPM_P2
2022/08/18 00:00:54;;;;;;;8.32;3.90;;;;;;;24.20;58.74;94510.53;5088792;28;20221;-81
2022/08/18 00:03:21;;;;;;;6.25;3.35;;;;;;;24.19;59.09;94516.00;5071937;28;20206;-82
2022/08/18 00:05:50;;;;;;;5.38;3.65;;;;;;;24.15;58.88;94518.28;5069099;28;20244;-82
2022/08/18 00:08:17;;;;;;;3.70;3.35;;;;;;;24.14;58.89;94518.50;5070418;28;20190;-83
2022/08/18 00:10:43;;;;;;;4.38;3.85;;;;;;;24.12;59.32;94516.09;5072877;28;20284;-82
2022/08/18 00:13:10;;;;;;;5.90;3.78;;;;;;;24.08;59.28;94520.19;5072890;28;20178;-84
2022/08/18 00:15:37;;;;;;;4.40;3.80;;;;;;;24.08;59.48;94519.38;5072917;28;20213;-84
2022/08/18 00:18:04;;;;;;;4.93;3.78;;;;;;;24.06;59.17;94511.78;5072681;28;20558;-83
2022/08/18 00:20:31;;;;;;;5.25;3.95;;;;;;;24.04;59.61;94521.66;5072696;28;20228;-83
2022/08/18 00:22:59;;;;;;;3.97;3.60;;;;;;;23.97;59.72;94513.94;5072278;28;20558;-80
2022/08/18 00:25:26;;;;;;;4.13;3.78;;;;;;;23.97;60.00;94524.38;5072533;28;20305;-83
2022/08/18 00:27:53;;;;;;;4.82;3.65;;;;;;;23.89;60.00;94510.84;5072523;28;20213;-84
2022/08/18 00:30:21;;;;;;;6.07;3.28;;;;;;;23.89;60.02;94514.25;5072572;28;20194;-83
2022/08/18 00:32:50;;;;;;;5.43;3.78;;;;;;;23.89;60.40;94523.91;5072016;28;20541;-81
2022/08/18 00:35:20;;;;;;;4.35;3.95;;;;;;;23.84;60.74;94518.56;5072468;28;20685;-84
2022/08/18 00:37:48;;;;;;;4.88;3.85;;;;;;;23.73;61.20;94515.69;5075284;28;20190;-84
2022/08/18 00:40:19;;;;;;;5.68;4.10;;;;;;;23.71;61.28;94514.34;5072412;28;20198;-85
2022/08/18 00:42:49;;;;;;;7.35;3.67;;;;;;;23.72;61.29;94521.16;5072211;28;20198;-83
2022/08/18 00:45:27;;;;;;;5.30;3.95;;;;;;;23.47;61.33;94490.72;5079634;28;20197;-81
2022/08/18 00:47:54;;;;;;;5.32;4.32;;;;;;;23.59;61.54;94511.66;5079520;28;20197;-81
2022/08/18 00:50:31;;;;;;;4.43;4.03;;;;;;;23.65;61.55;94526.44;5081306;28;20190;-82
2022/08/18 00:53:03;;;;;;;4.65;4.25;;;;;;;23.62;61.48;94534.72;5076187;28;20222;-82
2022/08/18 00:55:33;;;;;;;6.22;3.50;;;;;;;23.60;61.51;94535.94;5079825;28;20202;-82
2022/08/18 00:58:06;;;;;;;5.95;3.95;;;;;;;23.58;61.62;94535.38;5071455;28;20205;-81
2022/08/18 01:00:33;;;;;;;6.50;3.95;;;;;;;23.56;61.75;94529.56;5071854;28;20612;-84
2022/08/18 01:03:04;;;;;;;7.25;4.22;;;;;;;23.55;61.72;94534.00;5071522;28;20202;-82
2022/08/18 01:05:39;;;;;;;12.60;3.65;;;;;;;23.55;61.43;94534.00;5071331;28;20226;-82
2022/08/18 01:08:10;;;;;;;4.53;4.13;;;;;;;23.53;61.89;94536.84;5071503;28;20198;-83
2022/08/18 01:10:39;;;;;;;5.25;3.95;;;;;;;23.52;61.90;94535.22;5071719;28;20240;-85
2022/08/18 01:13:07;;;;;;;5.32;4.32;;;;;;;23.49;62.03;94532.28;5071472;28;20214;-84
2022/08/18 01:15:34;;;;;;;5.60;4.35;;;;;;;23.45;62.41;94533.75;5071402;28;20248;-83
2022/08/18 01:23:44;;;;;;;5.63;4.10;;;;;;;23.27;63.08;94540.59;5071306;28;20556;-83
2022/08/18 01:26:11;;;;;;;5.07;4.15;;;;;;;23.18;63.44;94530.66;5071580;28;20186;-78
2022/08/18 01:28:41;;;;;;;8.60;4.65;;;;;;;23.22;63.63;94534.44;5071489;28;20235;-80
2022/08/18 01:31:09;;;;;;;5.65;4.50;;;;;;;23.19;63.49;94534.88;5071406;28;20201;-80
2022/08/18 01:33:39;;;;;;;5.03;4.38;;;;;;;23.13;63.48;94527.91;5070865;28;20186;-81
2022/08/18 01:36:15;;;;;;;4.35;3.95;;;;;;;23.16;63.38;94532.69;5071067;28;20205;-84
2022/08/18 01:38:43;;;;;;;4.60;3.83;;;;;;;23.06;63.92;94529.78;5071230;28;20194;-83
2022/08/18 01:41:10;;;;;;;4.78;4.15;;;;;;;23.07;64.01;94534.81;5071284;28;20190;-83
2022/08/18 01:43:37;;;;;;;4.72;4.03;;;;;;;23.08;64.27;94533.78;5070936;28;20205;-82
2022/08/18 01:46:06;;;;;;;4.95;4.47;;;;;;;22.90;64.53;94513.75;5071259;28;20285;-82
2022/08/18 01:48:34;;;;;;;4.47;4.07;;;;;;;23.00;64.40;94531.47;5071232;28;20194;-83
2022/08/18 01:51:03;;;;;;;5.32;4.28;;;;;;;22.96;64.64;94522.50;5071270;28;20194;-82
2022/08/18 01:53:31;;;;;;;5.55;4.57;;;;;;;22.89;64.75;94527.78;5070832;28;20240;-82
2022/08/18 01:55:59;;;;;;;5.05;4.55;;;;;;;22.89;64.85;94532.19;5071032;28;20249;-83
2022/08/18 01:58:27;;;;;;;6.65;4.18;;;;;;;22.87;65.24;94524.56;5070581;28;20197;-84
2022/08/18 02:00:56;;;;;;;5.28;4.10;;;;;;;22.84;65.36;94524.19;5070500;28;20220;-82
2022/08/18 02:03:28;;;;;;;5.15;4.65;;;;;;;22.74;65.77;94517.69;5070302;28;20209;-83
2022/08/18 02:06:00;;;;;;;7.05;4.18;;;;;;;22.75;65.89;94524.50;5070875;28;20182;-81
2022/08/18 02:08:27;;;;;;;8.40;4.88;;;;;;;22.70;66.48;94518.34;5070551;28;20609;-83
2022/08/18 02:10:54;;;;;;;10.98;5.53;;;;;;;22.79;66.44;94536.06;5070438;28;20206;-82
2022/08/18 02:13:22;;;;;;;12.82;6.38;;;;;;;22.77;66.59;94534.72;5070207;28;20218;-83
2022/08/18 02:15:49;;;;;;;11.45;5.72;;;;;;;22.73;66.77;94529.13;5070206;28;20685;-84
2022/08/18 02:18:18;;;;;;;12.00;5.80;;;;;;;22.67;67.53;94532.63;5069616;28;20205;-83
2022/08/18 02:20:46;;;;;;;6.93;5.65;;;;;;;22.60;68.16;94531.88;5069870;28;20662;-83
2022/08/18 02:23:13;;;;;;;8.65;5.55;;;;;;;22.48;67.85;94510.13;5069535;28;20728;-83
2022/08/18 02:25:42;;;;;;;10.52;5.72;;;;;;;22.52;68.32;94530.34;5070082;28;20190;-82
2022/08/18 02:28:09;;;;;;;11.05;5.70;;;;;;;22.50;68.33;94523.78;5069591;28;20190;-83
2022/08/18 02:30:37;;;;;;;6.57;4.90;;;;;;;22.39;68.70;94514.03;5069497;28;20649;-83
2022/08/18 02:33:05;;;;;;;7.75;5.65;;;;;;;22.42;68.81;94524.03;5070427;28;20317;-81
2022/08/18 02:35:31;;;;;;;10.82;5.57;;;;;;;22.38;69.05;94521.06;5069778;28;20194;-83
2022/08/18 02:37:59;;;;;;;15.68;5.43;;;;;;;22.36;68.88;94520.47;5069602;28;20641;-82
2022/08/18 02:40:27;;;;;;;7.20;4.80;;;;;;;22.25;67.94;94495.13;5069284;28;20197;-82
2022/08/18 02:42:54;;;;;;;10.40;5.15;;;;;;;22.42;67.70;94526.66;5069612;28;20546;-82
2022/08/18 02:45:22;;;;;;;5.20;4.70;;;;;;;22.36;67.90;94517.06;5069231;28;20215;-79
2022/08/18 02:47:53;;;;;;;7.70;5.70;;;;;;;22.32;68.46;94529.72;5069228;28;20252;-83
2022/08/18 02:50:21;;;;;;;11.27;6.05;;;;;;;22.00;68.58;94487.31;5069262;28;20646;-83
2022/08/18 02:52:48;;;;;;;8.45;6.13;;;;;;;22.23;68.86;94531.00;5069411;28;20244;-81
2022/08/18 02:55:15;;;;;;;10.88;6.85;;;;;;;22.22;69.04;94534.63;5069450;28;20186;-82
2022/08/18 02:57:43;;;;;;;8.48;7.40;;;;;;;22.21;69.76;94533.03;5069616;28;20194;-81
2022/08/18 03:00:13;;;;;;;10.65;8.23;;;;;;;22.19;69.49;94528.06;5069042;28;20566;-82
2022/08/18 03:02:41;;;;;;;10.48;8.15;;;;;;;22.16;69.63;94535.50;5069449;28;20193;-82
2022/08/18 03:05:09;;;;;;;15.93;10.50;;;;;;;22.12;69.90;94527.31;5068961;28;20789;-83
2022/08/18 03:07:36;;;;;;;13.98;9.70;;;;;;;22.09;70.13;94527.69;5069482;28;20194;-83
2022/08/18 03:10:03;;;;;;;13.48;8.82;;;;;;;22.08;70.49;94527.91;5069174;28;20241;-82
2022/08/18 03:12:30;;;;;;;11.93;8.48;;;;;;;22.01;70.59;94531.34;5069192;28;20242;-83
2022/08/18 03:14:57;;;;;;;12.52;8.93;;;;;;;21.93;70.87;94523.78;5069272;28;20190;-83
2022/08/18 03:17:24;;;;;;;10.55;7.65;;;;;;;21.95;71.26;94534.03;5069433;28;20194;-84
2022/08/18 03:19:51;;;;;;;9.32;7.82;;;;;;;21.95;71.42;94539.22;5069573;28;20186;-83
2022/08/18 03:22:19;;;;;;;8.43;7.20;;;;;;;21.93;70.94;94534.22;5069224;28;20565;-83
2022/08/18 03:24:46;;;;;;;9.00;7.35;;;;;;;21.93;71.28;94539.41;5069150;28;20633;-82
2022/08/18 03:27:12;;;;;;;9.65;6.70;;;;;;;21.91;71.57;94538.84;5068892;28;20201;-83
2022/08/18 03:29:39;;;;;;;11.50;6.88;;;;;;;21.89;71.85;94537.44;5069254;28;20194;-83
2022/08/18 03:32:07;;;;;;;10.55;7.50;;;;;;;21.72;72.10;94518.97;5068823;28;20221;-83
2022/08/18 03:34:34;;;;;;;7.57;6.38;;;;;;;21.78;72.23;94534.53;5069095;28;20677;-82
2022/08/18 03:37:02;;;;;;;12.98;6.85;;;;;;;21.65;72.46;94513.78;5068694;28;20183;-83
2022/08/18 03:39:31;;;;;;;11.73;6.45;;;;;;;21.84;72.16;94539.91;5069221;28;20641;-83
2022/08/18 03:41:58;;;;;;;10.70;6.70;;;;;;;21.83;72.25;94538.31;5070263;28;20179;-83
2022/08/18 03:44:25;;;;;;;10.27;6.47;;;;;;;21.56;71.69;94481.22;5073231;28;20249;-83
2022/08/18 03:46:52;;;;;;;10.55;6.65;;;;;;;21.77;71.89;94519.13;5072625;28;20190;-81
2022/08/18 03:49:20;;;;;;;12.98;7.30;;;;;;;21.86;72.26;94540.50;5072664;28;20685;-84
2022/08/18 03:51:47;;;;;;;15.00;7.07;;;;;;;21.53;71.77;94479.03;5072757;28;20186;-80
2022/08/18 03:54:16;;;;;;;8.30;6.60;;;;;;;21.86;72.05;94540.50;5072759;28;20222;-80
2022/08/18 03:56:46;;;;;;;8.90;6.35;;;;;;;21.81;72.49;94535.13;5072413;28;20603;-80
2022/08/18 03:59:16;;;;;;;12.27;6.70;;;;;;;21.81;72.70;94556.75;5072421;28;20662;-83
2022/08/18 04:01:44;;;;;;;10.93;7.72;;;;;;;21.77;72.90;94543.34;5072397;28;20232;-83
2022/08/18 04:04:14;;;;;;;10.57;7.55;;;;;;;21.79;73.32;94541.31;5072227;28;20233;-81
2022/08/18 04:06:48;;;;;;;10.40;7.38;;;;;;;21.69;73.03;94537.59;5072475;28;20658;-82
2022/08/18 04:09:17;;;;;;;12.02;6.30;;;;;;;21.74;73.58;94546.38;5072421;28;20191;-83
2022/08/18 04:11:46;;;;;;;14.85;7.53;;;;;;;21.74;73.82;94553.38;5072212;28;20189;-84
2022/08/18 04:14:16;;;;;;;12.07;7.28;;;;;;;21.75;73.75;94555.75;5071956;28;20300;-83
2022/08/18 04:16:43;;;;;;;12.82;7.45;;;;;;;21.79;73.47;94569.16;5072628;28;20569;-81
2022/08/18 04:19:12;;;;;;;13.23;7.82;;;;;;;21.81;73.11;94571.56;5072072;28;20228;-81
2022/08/18 04:21:41;;;;;;;9.88;7.07;;;;;;;21.87;73.14;94575.94;5072040;28;20680;-83
2022/08/18 04:24:10;;;;;;;13.00;6.95;;;;;;;21.88;72.67;94569.72;5071907;28;20194;-85
2022/08/18 04:26:40;;;;;;;10.27;6.90;;;;;;;21.83;72.28;94556.53;5072164;28;20221;-84
2022/08/18 04:29:10;;;;;;;14.27;7.82;;;;;;;21.89;72.89;94572.13;5072086;28;20205;-82
2022/08/18 04:31:37;;;;;;;9.88;7.45;;;;;;;21.95;72.57;94576.47;5072146;28;20190;-82
2022/08/18 04:34:05;;;;;;;12.98;7.43;;;;;;;21.97;72.55;94584.88;5071499;28;20230;-82
2022/08/18 04:36:34;;;;;;;16.75;8.23;;;;;;;22.06;72.60;94582.81;5071772;28;20190;-82
2022/08/18 04:39:03;;;;;;;14.15;7.40;;;;;;;22.10;72.86;94583.19;5071132;28;20202;-83
2022/08/18 04:41:31;;;;;;;10.80;7.80;;;;;;;22.17;72.89;94583.97;5072000;28;20670;-81
2022/08/18 04:44:00;;;;;;;18.15;8.00;;;;;;;22.21;72.45;94566.91;5071472;28;20194;-82
2022/08/18 04:46:29;;;;;;;14.90;8.05;;;;;;;22.41;72.18;94582.34;5072211;28;20198;-80
2022/08/18 04:48:58;;;;;;;13.95;8.13;;;;;;;22.51;71.89;94590.50;5072099;28;20198;-83
2022/08/18 04:51:28;;;;;;;17.85;7.93;;;;;;;22.65;71.36;94591.19;5072163;28;20202;-80
2022/08/18 04:53:54;;;;;;;16.25;8.55;;;;;;;22.84;70.73;94587.59;5070520;28;20221;-81
2022/08/18 04:56:25;;;;;;;17.00;7.63;;;;;;;22.85;70.19;94563.13;5071376;28;20194;-80
2022/08/18 04:58:53;;;;;;;14.40;7.93;;;;;;;23.09;68.79;94594.59;5071345;28;20205;-82
2022/08/18 05:01:22;;;;;;;20.25;7.70;;;;;;;22.90;69.13;94594.59;5071701;28;20630;-81
2022/08/18 05:03:51;;;;;;;15.45;7.68;;;;;;;23.21;68.92;94596.25;5071195;28;20226;-83
2022/08/18 05:06:19;;;;;;;15.45;7.63;;;;;;;23.32;68.41;94591.34;5071357;28;20565;-84
2022/08/18 05:08:47;;;;;;;16.23;7.80;;;;;;;23.34;67.53;94587.47;5070958;28;20190;-84
2022/08/18 05:11:14;;;;;;;9.70;7.35;;;;;;;23.44;66.83;94592.16;5071616;28;20270;-79
2022/08/18 05:13:41;;;;;;;10.88;7.13;;;;;;;23.70;66.33;94585.84;5071179;28;20222;-80
2022/08/18 05:16:09;;;;;;;15.20;8.10;;;;;;;23.76;66.17;94583.16;5071161;28;20186;-85
2022/08/18 05:18:37;;;;;;;14.75;7.82;;;;;;;23.92;65.75;94584.34;5071233;28;20221;-82
2022/08/18 05:21:13;;;;;;;17.33;7.72;;;;;;;23.85;65.04;94591.47;5070992;28;20190;-80
2022/08/18 05:23:40;;;;;;;10.68;8.10;;;;;;;23.91;65.07;94597.59;5071017;28;20617;-81
2022/08/18 05:26:07;;;;;;;14.40;7.55;;;;;;;24.10;64.49;94603.59;5071087;28;20564;-82
2022/08/18 05:28:36;;;;;;;12.63;7.70;;;;;;;24.15;64.30;94607.13;5071910;28;20182;-83
2022/08/18 05:31:07;;;;;;;14.07;7.47;;;;;;;24.28;64.09;94593.84;5072495;28;20445;-81
2022/08/18 05:33:35;;;;;;;14.60;6.80;;;;;;;24.47;63.56;94599.00;5077245;28;20647;-82
2022/08/18 05:36:06;;;;;;;13.80;7.13;;;;;;;24.31;63.12;94595.22;5076114;28;20244;-80
2022/08/18 05:38:45;;;;;;;9.50;6.50;;;;;;;24.42;63.35;94601.50;5078019;28;20186;-81
2022/08/18 05:41:15;;;;;;;23.35;8.07;;;;;;;24.61;62.89;94602.19;5072851;28;20236;-84
2022/08/18 05:43:45;;;;;;;15.40;7.65;;;;;;;24.81;62.59;94613.13;5070918;28;20193;-82
2022/08/18 05:46:12;;;;;;;13.30;7.13;;;;;;;24.82;62.37;94590.38;5070803;28;20281;-82
2022/08/18 05:48:39;;;;;;;16.65;7.65;;;;;;;25.03;62.17;94608.88;5070605;28;20205;-82
2022/08/18 05:51:16;;;;;;;11.68;6.75;;;;;;;25.27;61.99;94607.06;5070684;28;20190;-85
2022/08/18 05:56:46;;;;;;;12.68;6.90;;;;;;;25.59;60.26;94613.69;5070791;28;20613;-84
2022/08/18 05:59:16;;;;;;;10.65;6.80;;;;;;;25.60;60.30;94591.72;5070136;28;20190;-84
2022/08/18 06:01:50;;;;;;;14.75;7.07;;;;;;;25.82;59.54;94599.75;5070917;28;20197;-84
2022/08/18 06:04:28;;;;;;;9.27;6.97;;;;;;;26.02;59.20;94614.00;5071391;28;20218;-84
2022/08/18 06:06:57;;;;;;;11.80;6.75;;;;;;;26.28;59.25;94606.56;5082311;28;20221;-81
2022/08/18 06:09:31;;;;;;;9.30;6.63;;;;;;;26.58;58.08;94608.13;5088323;28;20247;-82
2022/08/18 06:12:07;;;;;;;9.10;6.65;;;;;;;26.72;57.57;94597.06;5072901;28;20186;-84
2022/08/18 06:14:37;;;;;;;13.63;6.82;;;;;;;27.10;56.69;94613.09;5072061;28;20731;-84
2022/08/18 06:17:19;;;;;;;13.02;6.82;;;;;;;27.32;54.94;94608.66;5072186;28;20731;-82
2022/08/18 06:19:57;;;;;;;9.50;6.78;;;;;;;27.55;54.93;94615.50;5070118;28;20583;-80
2022/08/18 06:22:32;;;;;;;13.18;6.63;;;;;;;27.80;54.57;94609.75;5071672;28;20208;-80
2022/08/18 06:25:06;;;;;;;14.02;6.70;;;;;;;27.98;54.20;94608.63;5070635;28;20212;-80
2022/08/18 06:27:43;;;;;;;13.30;7.45;;;;;;;28.26;53.78;94610.19;5069959;28;20190;-83
2022/08/18 06:30:19;;;;;;;9.15;7.05;;;;;;;28.40;52.03;94614.03;5069946;28;20182;-79
2022/08/18 06:33:03;;;;;;;10.90;6.32;;;;;;;28.42;52.11;94611.94;5069384;28;20200;-82
2022/08/18 06:35:35;;;;;;;8.10;6.25;;;;;;;28.44;52.25;94619.56;5069867;28;20627;-85
2022/08/18 06:41:08;;;;;;;12.05;6.60;;;;;;;28.45;52.38;94626.41;5069467;28;20271;-82
2022/08/18 06:43:38;;;;;;;11.05;6.50;;;;;;;28.68;52.18;94615.56;5069613;28;20201;-84
2022/08/18 06:46:14;;;;;;;9.77;6.40;;;;;;;28.96;51.90;94609.19;5069515;28;20182;-83
2022/08/18 06:48:53;;;;;;;9.82;6.95;;;;;;;29.30;51.16;94606.19;5069453;28;20177;-83
2022/08/18 06:51:22;;;;;;;11.15;5.95;;;;;;;29.41;49.75;94580.69;5069632;28;20194;-81
2022/08/18 06:54:00;;;;;;;17.35;6.40;;;;;;;29.69;49.73;94601.38;5069510;28;20222;-82
2022/08/18 06:56:35;;;;;;;11.50;6.18;;;;;;;29.67;49.10;94577.13;5069190;28;20182;-80
2022/08/18 06:59:25;;;;;;;11.50;5.60;;;;;;;29.81;49.20;94595.09;5069168;28;20186;-84
2022/08/18 07:01:54;;;;;;;8.80;5.82;;;;;;;29.69;48.72;94582.91;5069039;28;20186;-80
2022/08/18 07:04:35;;;;;;;6.43;5.43;;;;;;;29.90;48.33;94596.16;5068864;28;20701;-83
2022/08/18 07:07:17;;;;;;;12.30;5.43;;;;;;;29.90;48.64;94588.25;5069230;28;20577;-82
2022/08/18 07:09:45;;;;;;;8.23;5.53;;;;;;;29.98;48.60;94588.50;5069248;28;20686;-82
2022/08/18 07:12:20;;;;;;;13.93;4.72;;;;;;;30.08;48.62;94590.38;5069261;28;20210;-82
2022/08/18 07:14:49;;;;;;;9.93;5.57;;;;;;;30.05;48.93;94561.88;5068922;28;20241;-81
2022/08/18 07:17:22;;;;;;;7.57;4.85;;;;;;;30.35;48.74;94576.94;5069136;28;20179;-83
2022/08/18 07:19:58;;;;;;;8.02;5.38;;;;;;;30.60;48.62;94575.38;5069065;28;20190;-85
2022/08/18 07:22:25;;;;;;;8.55;4.78;;;;;;;30.79;47.75;94570.38;5069094;28;20312;-82
2022/08/18 07:24:57;;;;;;;7.28;4.47;;;;;;;30.95;47.33;94571.91;5068969;28;20186;-81
2022/08/18 07:27:42;;;;;;;11.80;4.70;;;;;;;31.12;46.91;94580.28;5068889;28;20731;-79
2022/08/18 07:30:12;;;;;;;5.70;4.18;;;;;;;31.24;45.86;94575.50;5069297;28;20646;-81
2022/08/18 07:32:46;;;;;;;7.55;4.75;;;;;;;31.35;45.82;94583.44;5069004;28;20629;-82
2022/08/18 07:35:17;;;;;;;6.47;4.35;;;;;;;31.52;45.52;94573.31;5068902;28;20268;-83
2022/08/18 07:37:49;;;;;;;8.68;4.72;;;;;;;31.66;44.55;94584.09;5069118;28;20375;-83
2022/08/18 07:40:29;;;;;;;6.22;4.30;;;;;;;31.72;44.51;94578.47;5068921;28;20234;-81
2022/08/18 07:43:01;;;;;;;6.35;4.53;;;;;;;31.80;44.34;94582.41;5069296;28;20190;-82
2022/08/18 07:45:33;;;;;;;6.47;5.00;;;;;;;31.96;44.75;94588.44;5068615;28;20715;-82
2022/08/18 07:48:06;;;;;;;5.72;4.80;;;;;;;31.98;43.89;94584.44;5069322;28;20191;-83
2022/08/18 07:50:44;;;;;;;6.80;4.70;;;;;;;32.03;44.33;94567.75;5069380;28;20281;-81
2022/08/18 07:53:26;;;;;;;8.40;4.90;;;;;;;32.17;43.86;94579.31;5069494;28;20191;-82
2022/08/18 07:56:02;;;;;;;6.97;4.57;;;;;;;32.23;43.03;94578.19;5068800;28;20599;-82
2022/08/18 07:58:37;;;;;;;6.63;4.55;;;;;;;32.03;43.43;94586.25;5068319;28;20296;-82
2022/08/18 08:01:14;;;;;;;6.65;4.25;;;;;;;32.14;43.53;94569.25;5068746;28;20178;-83
2022/08/18 08:03:51;;;;;;;4.93;4.38;;;;;;;32.29;42.94;94586.09;5068752;28;20221;-82
2022/08/18 08:06:27;;;;;;;6.60;4.88;;;;;;;32.26;42.40;94581.38;5068467;28;20654;-83
2022/08/18 08:09:02;;;;;;;5.72;4.82;;;;;;;32.33;42.98;94579.97;5068910;28;20198;-83
2022/08/18 08:11:43;;;;;;;7.93;4.47;;;;;;;32.43;41.63;94581.78;5068486;28;20182;-83
2022/08/18 08:14:34;;;;;;;7.50;4.65;;;;;;;32.33;41.70;94569.38;5068706;28;20214;-82
2022/08/18 08:17:10;;;;;;;6.13;4.57;;;;;;;32.41;41.81;94578.63;5068909;28;20191;-82
2022/08/18 08:20:08;;;;;;;7.60;4.47;;;;;;;32.58;42.27;94580.84;5068262;28;20280;-82
2022/08/18 08:22:44;;;;;;;4.28;3.88;;;;;;;32.79;42.13;94573.50;5066228;28;20245;-80
2022/08/18 08:25:19;;;;;;;5.90;3.92;;;;;;;32.94;41.58;94570.72;5068262;28;20193;-81
2022/08/18 08:28:06;;;;;;;7.55;4.18;;;;;;;33.13;40.92;94568.94;5068808;28;20193;-81
2022/08/18 08:30:37;;;;;;;5.60;4.47;;;;;;;33.16;40.12;94575.53;5072094;28;20209;-81
2022/08/18 08:33:10;;;;;;;11.68;4.22;;;;;;;33.11;40.49;94576.38;5071797;28;20186;-82
2022/08/18 08:35:45;;;;;;;3.92;3.63;;;;;;;32.95;39.54;94577.63;5072076;28;20214;-83
2022/08/18 08:38:19;;;;;;;7.03;4.25;;;;;;;32.92;39.48;94552.47;5071508;28;20280;-81
2022/08/18 08:40:54;;;;;;;6.22;3.90;;;;;;;33.14;38.70;94569.72;5072013;28;20194;-82
2022/08/18 08:43:30;;;;;;;5.10;3.58;;;;;;;33.19;37.99;94567.00;5071623;28;20186;-82
2022/08/18 08:46:07;;;;;;;4.35;3.95;;;;;;;33.20;38.44;94565.94;5072002;28;20198;-83
2022/08/18 08:48:39;;;;;;;6.63;4.53;;;;;;;33.22;38.15;94567.25;5071239;28;20190;-83
2022/08/18 08:51:31;;;;;;;4.18;3.78;;;;;;;33.27;38.12;94569.03;5071686;28;20251;-81
2022/08/18 08:54:06;;;;;;;7.88;3.65;;;;;;;33.09;37.54;94551.25;5071822;28;20254;-83
2022/08/18 08:56:36;;;;;;;5.43;3.60;;;;;;;33.27;37.59;94570.91;5071600;28;20198;-83
2022/08/18 08:59:10;;;;;;;5.55;3.70;;;;;;;33.21;37.73;94564.88;5071749;28;20186;-83
2022/08/18 09:01:46;;;;;;;8.68;4.47;;;;;;;33.11;37.08;94559.69;5070864;28;20182;-83
2022/08/18 09:04:23;;;;;;;6.75;4.25;;;;;;;33.09;36.71;94567.94;5071752;28;20233;-83
2022/08/18 09:06:58;;;;;;;7.13;3.92;;;;;;;32.94;37.23;94552.97;5071508;28;20197;-82
2022/08/18 09:09:47;;;;;;;4.30;3.90;;;;;;;33.15;37.06;94563.34;5071218;28;20234;-82
2022/08/18 09:12:36;;;;;;;6.28;3.40;;;;;;;33.21;37.04;94544.47;5068474;28;20194;-83
2022/08/18 09:15:35;;;;;;;3.70;3.40;;;;;;;33.44;36.61;94558.78;5071139;28;20639;-81
2022/08/18 09:18:36;;;;;;;6.97;3.50;;;;;;;33.40;36.72;94547.13;5049135;28;20566;-82
2022/08/18 09:21:26;;;;;;;5.00;3.50;;;;;;;33.40;36.52;94552.44;5048952;28;20187;-82
2022/08/18 09:24:06;;;;;;;5.40;4.53;;;;;;;33.38;36.64;94519.34;5049098;28;20292;-82
2022/08/18 09:26:43;;;;;;;4.65;3.78;;;;;;;33.61;36.12;94547.69;5048619;28;20578;-83
2022/08/18 09:29:20;;;;;;;3.63;3.22;;;;;;;33.58;36.04;94545.59;5048736;28;20725;-82
2022/08/18 09:32:00;;;;;;;7.60;3.58;;;;;;;33.36;35.81;94518.81;5048344;28;20725;-82
2022/08/18 09:34:50;;;;;;;5.60;3.67;;;;;;;33.43;36.16;94528.03;5048045;28;20301;-83
2022/08/18 09:37:20;;;;;;;4.07;3.72;;;;;;;33.38;36.18;94516.69;5048511;28;20194;-84
2022/08/18 09:42:50;;;;;;;6.72;3.60;;;;;;;33.64;36.05;94535.75;5048276;28;20197;-83
2022/08/18 09:45:55;;;;;;;6.07;3.95;;;;;;;33.58;35.51;94539.50;5048355;28;20198;-84
2022/08/18 09:48:30;;;;;;;3.97;3.40;;;;;;;33.62;35.34;94537.88;5048000;28;20302;-83
2022/08/18 09:51:22;;;;;;;5.25;3.05;;;;;;;33.65;35.27;94530.13;5048145;28;20286;-83
2022/08/18 09:54:13;;;;;;;4.00;3.63;;;;;;;33.69;35.07;94525.84;5048146;28;20195;-82
2022/08/18 09:57:16;;;;;;;5.95;3.83;;;;;;;33.61;35.36;94523.81;5070388;28;20198;-82
2022/08/18 10:00:25;;;;;;;6.03;3.60;;;;;;;33.70;35.80;94514.13;5070278;28;20233;-83
2022/08/18 10:03:23;;;;;;;4.82;3.97;;;;;;;33.74;35.69;94513.56;5070294;28;20178;-82
2022/08/18 10:06:05;;;;;;;9.65;4.40;;;;;;;33.75;35.89;94510.63;5070558;28;20193;-83
2022/08/18 10:08:56;;;;;;;7.10;3.85;;;;;;;33.86;35.90;94509.41;5070358;28;20224;-84
2022/08/18 10:11:40;;;;;;;6.43;3.90;;;;;;;33.98;35.31;94503.66;5070723;28;20190;-83
2022/08/18 10:14:45;;;;;;;10.25;3.90;;;;;;;33.94;35.04;94492.84;5070156;28;20210;-82
2022/08/18 10:17:23;;;;;;;3.65;3.35;;;;;;;34.02;35.04;94507.31;5069511;28;20182;-80
2022/08/18 10:19:59;;;;;;;7.10;3.85;;;;;;;34.02;35.27;94498.56;5069680;28;20200;-82
2022/08/18 10:22:42;;;;;;;5.53;3.72;;;;;;;33.96;35.11;94500.53;5069677;28;20918;-83
2022/08/18 10:25:10;;;;;;;5.07;3.42;;;;;;;33.86;35.44;94498.78;5069618;28;20190;-83
2022/08/18 10:27:50;;;;;;;4.05;3.63;;;;;;;33.82;35.81;94502.31;5069725;28;20269;-80
2022/08/18 10:30:47;;;;;;;5.55;4.30;;;;;;;33.81;35.74;94498.06;5069751;28;20200;-83
2022/08/18 10:33:52;;;;;;;9.10;3.55;;;;;;;33.75;34.81;94486.75;5069716;28;20648;-82
2022/08/18 10:36:37;;;;;;;6.10;3.90;;;;;;;33.73;34.84;94486.25;5069800;28;20200;-83
2022/08/18 10:39:10;;;;;;;3.92;3.63;;;;;;;33.77;35.40;94484.59;5069485;28;20225;-83
2022/08/18 10:41:45;;;;;;;4.25;3.80;;;;;;;33.75;34.99;94493.91;5069565;28;20571;-83
2022/08/18 10:44:15;;;;;;;7.18;4.22;;;;;;;33.71;35.33;94483.09;5069690;28;20197;-84
2022/08/18 10:46:44;;;;;;;3.75;3.20;;;;;;;33.79;34.74;94484.31;5069288;28;20182;-81
2022/08/18 10:49:21;;;;;;;3.83;3.45;;;;;;;33.64;35.15;94456.94;5069709;28;20190;-83
2022/08/18 10:52:24;;;;;;;4.95;3.53;;;;;;;33.79;35.39;94476.34;5068702;28;20577;-80
2022/08/18 10:55:19;;;;;;;3.97;3.67;;;;;;;33.83;34.75;94480.78;5069048;28;20221;-82
2022/08/18 10:58:21;;;;;;;5.63;3.60;;;;;;;33.86;34.85;94474.13;5069434;28;20197;-82
2022/08/18 11:01:02;;;;;;;3.15;2.95;;;;;;;33.74;35.10;94453.34;5026937;28;20193;-83
2022/08/18 11:03:43;;;;;;;4.30;3.90;;;;;;;33.84;35.28;94458.47;5026761;28;20188;-82
2022/08/18 11:06:17;;;;;;;3.55;3.25;;;;;;;33.89;34.57;94454.97;5027110;28;20395;-82
2022/08/18 11:08:46;;;;;;;7.75;3.45;;;;;;;33.68;33.42;94425.34;5026585;28;20274;-82
2022/08/18 11:11:21;;;;;;;4.90;3.40;;;;;;;33.82;33.73;94457.22;5027161;28;20422;-82
2022/08/18 11:14:00;;;;;;;5.43;3.63;;;;;;;33.81;33.14;94459.09;5026634;28;20337;-82
2022/08/18 11:16:42;;;;;;;5.70;3.40;;;;;;;33.84;32.93;94455.03;5026929;28;20241;-82
2022/08/18 11:19:12;;;;;;;3.65;3.20;;;;;;;33.80;33.40;94462.00;5026824;28;20184;-84
2022/08/18 11:21:42;;;;;;;4.10;3.67;;;;;;;33.81;33.29;94461.72;5026917;28;20194;-82
2022/08/18 11:24:12;;;;;;;5.85;3.85;;;;;;;33.58;33.61;94444.03;5026805;28;20279;-83
2022/08/18 11:26:44;;;;;;;8.32;3.53;;;;;;;33.80;34.52;94462.00;5026522;28;20183;-83
2022/08/18 11:29:24;;;;;;;4.80;3.35;;;;;;;33.68;33.32;94457.94;5026673;28;20616;-83
2022/08/18 11:31:55;;;;;;;4.07;3.55;;;;;;;33.68;33.35;94459.81;5026890;28;20195;-84
2022/08/18 11:34:27;;;;;;;3.45;3.25;;;;;;;33.71;34.12;94459.22;5026648;28;20195;-82
2022/08/18 11:36:58;;;;;;;4.32;3.63;;;;;;;33.60;33.00;94452.50;5042930;28;20638;-83
2022/08/18 11:39:25;;;;;;;5.20;3.30;;;;;;;33.56;33.25;94451.50;5072449;28;20190;-82
2022/08/18 11:41:54;;;;;;;6.78;3.53;;;;;;;33.33;33.10;94453.09;5082386;28;20198;-84
2022/08/18 11:44:24;;;;;;;4.90;3.95;;;;;;;33.34;33.23;94449.41;5085758;28;20183;-82
2022/08/18 11:46:56;;;;;;;6.45;3.20;;;;;;;33.37;33.40;94457.56;5070324;28;20271;-84
2022/08/18 11:49:31;;;;;;;5.45;3.60;;;;;;;33.46;33.26;94452.41;5069489;28;20182;-82
2022/08/18 11:52:01;;;;;;;5.15;3.33;;;;;;;33.54;33.74;94449.13;5068962;28;20221;-83
2022/08/18 11:54:38;;;;;;;4.03;3.70;;;;;;;33.57;33.70;94429.22;5069081;28;20186;-83
2022/08/18 11:57:31;;;;;;;4.32;3.38;;;;;;;33.64;33.04;94442.91;5068777;28;20247;-82
2022/08/18 11:59:58;;;;;;;5.68;4.05;;;;;;;33.63;33.83;94436.00;5046394;28;20702;-83
2022/08/18 12:02:26;;;;;;;6.85;3.53;;;;;;;33.69;34.01;94435.66;5046753;28;20191;-82
2022/08/18 12:04:59;;;;;;;4.25;3.28;;;;;;;33.80;33.72;94427.50;5049701;28;20230;-82
2022/08/18 12:07:31;;;;;;;3.75;3.30;;;;;;;33.82;33.61;94420.06;5053944;28;20289;-77
2022/08/18 12:10:23;;;;;;;3.80;3.50;;;;;;;33.89;32.95;94429.22;5053728;28;20216;-81
2022/08/18 12:12:53;;;;;;;4.05;3.38;;;;;;;33.99;32.88;94424.88;5052271;28;20234;-80
2022/08/18 12:15:27;;;;;;;5.65;3.75;;;;;;;33.93;33.08;94427.53;5053404;28;20218;-80